sensor_id;sensor_type;location;lat;lon;timestamp;P1;durP1;ratioP1;P2;durP2;ratioP2
8881;SDS011;4477;48.736;9.176;2023-10-13T00:00:48;5.60;;;3.37;;
8881;SDS011;4477;48.736;9.176;2023-10-13T00:03:22;6.03;;;2.80;;
8881;SDS011;4477;48.736;9.176;2023-10-13T00:05:50;5.53;;;3.33;;
8881;SDS011;4477;48.736;9.176;2023-10-13T00:08:18;4.03;;;3.20;;
8881;SDS011;4477;48.736;9.176;2023-10-13T00:10:45;4.47;;;3.37;;
8881;SDS011;4477;48.736;9.176;2023-10-13T00:13:13;6.93;;;3.07;;
8881;SDS011;4477;48.736;9.176;2023-10-13T00:15:41;5.83;;;3.60;;
8881;SDS011;4477;48.736;9.176;2023-10-13T00:18:23;4.73;;;2.93;;
8881;SDS011;4477;48.736;9.176;2023-10-13T00:20:51;3.93;;;3.07;;
8881;SDS011;4477;48.736;9.176;2023-10-13T00:23:21;4.43;;;3.33;;
8881;SDS011;4477;48.736;9.176;2023-10-13T00:25:52;5.43;;;3.17;;
8881;SDS011;4477;48.736;9.176;2023-10-13T00:28:24;5.87;;;3.33;;
8881;SDS011;4477;48.736;9.176;2023-10-13T00:31:00;5.13;;;3.03;;
8881;SDS011;4477;48.736;9.176;2023-10-13T00:33:37;6.93;;;3.67;;
8881;SDS011;4477;48.736;9.176;2023-10-13T00:36:04;4.97;;;3.47;;
8881;SDS011;4477;48.736;9.176;2023-10-13T00:38:33;4.47;;;2.73;;
8881;SDS011;4477;48.736;9.176;2023-10-13T00:41:00;4.87;;;3.00;;
8881;SDS011;4477;48.736;9.176;2023-10-13T00:43:43;5.93;;;3.23;;
8881;SDS011;4477;48.736;9.176;2023-10-13T00:46:10;4.70;;;3.30;;
8881;SDS011;4477;48.736;9.176;2023-10-13T00:48:45;4.37;;;2.87;;
8881;SDS011;4477;48.736;9.176;2023-10-13T00:51:17;4.87;;;3.23;;
8881;SDS011;4477;48.736;9.176;2023-10-13T00:53:57;6.00;;;3.07;;
8881;SDS011;4477;48.736;9.176;2023-10-13T00:56:24;4.27;;;2.57;;
8881;SDS011;4477;48.736;9.176;2023-10-13T00:58:53;7.03;;;3.20;;
8881;SDS011;4477;48.736;9.176;2023-10-13T01:01:21;7.20;;;3.20;;
8881;SDS011;4477;48.736;9.176;2023-10-13T01:03:50;6.00;;;3.37;;
8881;SDS011;4477;48.736;9.176;2023-10-13T01:06:20;5.53;;;2.87;;
8881;SDS011;4477;48.736;9.176;2023-10-13T01:08:56;5.43;;;3.57;;
8881;SDS011;4477;48.736;9.176;2023-10-13T01:11:23;5.87;;;2.90;;
8881;SDS011;4477;48.736;9.176;2023-10-13T01:13:52;4.43;;;3.10;;
8881;SDS011;4477;48.736;9.176;2023-10-13T01:16:18;3.80;;;3.00;;
8881;SDS011;4477;48.736;9.176;2023-10-13T01:18:50;5.77;;;3.20;;
8881;SDS011;4477;48.736;9.176;2023-10-13T01:21:16;5.63;;;3.30;;
8881;SDS011;4477;48.736;9.176;2023-10-13T01:23:46;4.70;;;2.77;;
8881;SDS011;4477;48.736;9.176;2023-10-13T01:26:13;4.80;;;3.03;;
8881;SDS011;4477;48.736;9.176;2023-10-13T01:28:46;5.17;;;3.70;;
8881;SDS011;4477;48.736;9.176;2023-10-13T01:31:13;5.13;;;3.03;;
8881;SDS011;4477;48.736;9.176;2023-10-13T01:33:49;7.37;;;3.13;;
8881;SDS011;4477;48.736;9.176;2023-10-13T01:36:19;7.33;;;2.83;;
8881;SDS011;4477;48.736;9.176;2023-10-13T01:38:48;5.07;;;2.80;;
8881;SDS011;4477;48.736;9.176;2023-10-13T01:41:15;3.80;;;3.17;;
8881;SDS011;4477;48.736;9.176;2023-10-13T01:43:42;6.90;;;3.50;;
8881;SDS011;4477;48.736;9.176;2023-10-13T01:46:08;3.77;;;2.80;;
8881;SDS011;4477;48.736;9.176;2023-10-13T01:48:38;4.77;;;3.10;;
8881;SDS011;4477;48.736;9.176;2023-10-13T01:51:05;6.13;;;3.33;;
8881;SDS011;4477;48.736;9.176;2023-10-13T01:53:35;4.13;;;3.00;;
8881;SDS011;4477;48.736;9.176;2023-10-13T01:56:03;4.73;;;3.40;;
8881;SDS011;4477;48.736;9.176;2023-10-13T01:58:39;6.53;;;3.13;;
8881;SDS011;4477;48.736;9.176;2023-10-13T02:01:07;7.07;;;3.10;;
8881;SDS011;4477;48.736;9.176;2023-10-13T02:03:35;6.50;;;3.40;;
8881;SDS011;4477;48.736;9.176;2023-10-13T02:06:06;6.60;;;3.43;;
8881;SDS011;4477;48.736;9.176;2023-10-13T02:08:36;5.10;;;3.30;;
8881;SDS011;4477;48.736;9.176;2023-10-13T02:11:09;6.87;;;3.23;;
8881;SDS011;4477;48.736;9.176;2023-10-13T02:13:36;4.60;;;3.20;;
8881;SDS011;4477;48.736;9.176;2023-10-13T02:16:07;4.60;;;3.10;;
8881;SDS011;4477;48.736;9.176;2023-10-13T02:18:36;5.10;;;3.13;;
8881;SDS011;4477;48.736;9.176;2023-10-13T02:21:07;6.83;;;3.63;;
8881;SDS011;4477;48.736;9.176;2023-10-13T02:23:39;6.03;;;3.40;;
8881;SDS011;4477;48.736;9.176;2023-10-13T02:26:10;4.50;;;3.10;;
8881;SDS011;4477;48.736;9.176;2023-10-13T02:28:39;4.97;;;2.97;;
8881;SDS011;4477;48.736;9.176;2023-10-13T02:31:06;5.40;;;3.13;;
8881;SDS011;4477;48.736;9.176;2023-10-13T02:33:33;6.37;;;3.60;;
8881;SDS011;4477;48.736;9.176;2023-10-13T02:36:01;5.43;;;3.20;;
8881;SDS011;4477;48.736;9.176;2023-10-13T02:38:30;6.93;;;4.00;;
8881;SDS011;4477;48.736;9.176;2023-10-13T02:41:10;4.30;;;3.20;;
8881;SDS011;4477;48.736;9.176;2023-10-13T02:43:37;7.40;;;3.90;;
8881;SDS011;4477;48.736;9.176;2023-10-13T02:46:04;6.20;;;3.43;;
8881;SDS011;4477;48.736;9.176;2023-10-13T02:48:31;6.53;;;3.47;;
8881;SDS011;4477;48.736;9.176;2023-10-13T02:51:05;6.50;;;3.20;;
8881;SDS011;4477;48.736;9.176;2023-10-13T02:53:40;4.40;;;3.10;;
8881;SDS011;4477;48.736;9.176;2023-10-13T02:56:06;5.43;;;3.60;;
8881;SDS011;4477;48.736;9.176;2023-10-13T02:58:35;4.80;;;3.43;;
8881;SDS011;4477;48.736;9.176;2023-10-13T03:01:08;5.50;;;3.20;;
8881;SDS011;4477;48.736;9.176;2023-10-13T03:03:42;6.27;;;3.57;;
8881;SDS011;4477;48.736;9.176;2023-10-13T03:06:13;5.07;;;3.33;;
8881;SDS011;4477;48.736;9.176;2023-10-13T03:08:39;7.77;;;3.67;;
8881;SDS011;4477;48.736;9.176;2023-10-13T03:11:08;5.27;;;3.53;;
8881;SDS011;4477;48.736;9.176;2023-10-13T03:13:36;8.77;;;3.73;;
8881;SDS011;4477;48.736;9.176;2023-10-13T03:16:12;6.27;;;3.83;;
8881;SDS011;4477;48.736;9.176;2023-10-13T03:18:41;5.60;;;3.30;;
8881;SDS011;4477;48.736;9.176;2023-10-13T03:21:17;4.17;;;3.40;;
8881;SDS011;4477;48.736;9.176;2023-10-13T03:23:53;5.10;;;2.97;;
8881;SDS011;4477;48.736;9.176;2023-10-13T03:26:21;5.40;;;3.20;;
8881;SDS011;4477;48.736;9.176;2023-10-13T03:28:48;5.47;;;3.60;;
8881;SDS011;4477;48.736;9.176;2023-10-13T03:31:19;6.87;;;3.90;;
8881;SDS011;4477;48.736;9.176;2023-10-13T03:33:53;4.90;;;3.67;;
8881;SDS011;4477;48.736;9.176;2023-10-13T03:36:24;6.60;;;4.10;;
8881;SDS011;4477;48.736;9.176;2023-10-13T03:39:22;5.60;;;3.37;;
8881;SDS011;4477;48.736;9.176;2023-10-13T03:41:53;6.77;;;3.50;;
8881;SDS011;4477;48.736;9.176;2023-10-13T03:44:23;5.63;;;3.70;;
8881;SDS011;4477;48.736;9.176;2023-10-13T03:46:55;4.57;;;3.27;;
8881;SDS011;4477;48.736;9.176;2023-10-13T03:49:22;4.23;;;3.30;;
8881;SDS011;4477;48.736;9.176;2023-10-13T03:51:50;3.97;;;2.97;;
8881;SDS011;4477;48.736;9.176;2023-10-13T03:54:19;6.90;;;3.77;;
8881;SDS011;4477;48.736;9.176;2023-10-13T03:56:47;5.37;;;3.57;;
8881;SDS011;4477;48.736;9.176;2023-10-13T03:59:17;7.40;;;3.33;;
8881;SDS011;4477;48.736;9.176;2023-10-13T04:01:46;6.87;;;3.47;;
8881;SDS011;4477;48.736;9.176;2023-10-13T04:04:23;5.33;;;3.43;;
8881;SDS011;4477;48.736;9.176;2023-10-13T04:07:09;4.17;;;3.33;;
8881;SDS011;4477;48.736;9.176;2023-10-13T04:09:45;6.57;;;3.63;;
8881;SDS011;4477;48.736;9.176;2023-10-13T04:12:32;4.13;;;3.73;;
8881;SDS011;4477;48.736;9.176;2023-10-13T04:15:12;5.17;;;3.93;;
8881;SDS011;4477;48.736;9.176;2023-10-13T04:17:49;5.87;;;3.67;;
8881;SDS011;4477;48.736;9.176;2023-10-13T04:20:16;5.03;;;3.47;;
8881;SDS011;4477;48.736;9.176;2023-10-13T04:23:00;4.37;;;3.13;;
8881;SDS011;4477;48.736;9.176;2023-10-13T04:25:50;5.33;;;3.00;;
8881;SDS011;4477;48.736;9.176;2023-10-13T04:28:34;4.43;;;3.23;;
8881;SDS011;4477;48.736;9.176;2023-10-13T04:31:05;4.13;;;3.33;;
8881;SDS011;4477;48.736;9.176;2023-10-13T04:33:38;5.63;;;3.33;;
8881;SDS011;4477;48.736;9.176;2023-10-13T04:36:16;5.30;;;3.37;;
8881;SDS011;4477;48.736;9.176;2023-10-13T04:39:01;5.57;;;3.50;;
8881;SDS011;4477;48.736;9.176;2023-10-13T04:41:36;9.23;;;3.30;;
8881;SDS011;4477;48.736;9.176;2023-10-13T04:44:04;5.13;;;3.43;;
8881;SDS011;4477;48.736;9.176;2023-10-13T04:46:52;6.73;;;3.90;;
8881;SDS011;4477;48.736;9.176;2023-10-13T04:49:35;6.20;;;3.93;;
8881;SDS011;4477;48.736;9.176;2023-10-13T04:52:15;5.10;;;3.53;;
8881;SDS011;4477;48.736;9.176;2023-10-13T04:55:03;6.00;;;3.10;;
8881;SDS011;4477;48.736;9.176;2023-10-13T04:57:57;5.40;;;3.60;;
8881;SDS011;4477;48.736;9.176;2023-10-13T05:00:35;5.43;;;3.63;;
8881;SDS011;4477;48.736;9.176;2023-10-13T05:03:25;6.37;;;3.67;;
8881;SDS011;4477;48.736;9.176;2023-10-13T05:06:29;5.10;;;4.13;;
8881;SDS011;4477;48.736;9.176;2023-10-13T05:09:15;7.10;;;3.97;;
8881;SDS011;4477;48.736;9.176;2023-10-13T05:11:59;5.17;;;3.73;;
8881;SDS011;4477;48.736;9.176;2023-10-13T05:14:43;5.00;;;3.73;;
8881;SDS011;4477;48.736;9.176;2023-10-13T05:17:27;6.43;;;3.63;;
8881;SDS011;4477;48.736;9.176;2023-10-13T05:20:11;5.37;;;4.00;;
8881;SDS011;4477;48.736;9.176;2023-10-13T05:22:57;6.40;;;4.00;;
8881;SDS011;4477;48.736;9.176;2023-10-13T05:25:41;8.03;;;3.63;;
8881;SDS011;4477;48.736;9.176;2023-10-13T05:28:25;5.83;;;4.43;;
8881;SDS011;4477;48.736;9.176;2023-10-13T05:31:09;4.73;;;3.70;;
8881;SDS011;4477;48.736;9.176;2023-10-13T05:33:54;4.90;;;4.10;;
8881;SDS011;4477;48.736;9.176;2023-10-13T05:36:38;5.70;;;4.17;;
8881;SDS011;4477;48.736;9.176;2023-10-13T05:39:24;8.50;;;4.33;;
8881;SDS011;4477;48.736;9.176;2023-10-13T05:42:08;6.43;;;4.30;;
8881;SDS011;4477;48.736;9.176;2023-10-13T05:44:52;6.90;;;4.43;;
8881;SDS011;4477;48.736;9.176;2023-10-13T05:47:42;6.60;;;4.83;;
8881;SDS011;4477;48.736;9.176;2023-10-13T05:50:26;6.53;;;4.60;;
8881;SDS011;4477;48.736;9.176;2023-10-13T05:53:15;7.27;;;4.30;;
8881;SDS011;4477;48.736;9.176;2023-10-13T05:56:01;7.03;;;4.20;;
8881;SDS011;4477;48.736;9.176;2023-10-13T05:58:45;6.03;;;4.13;;
8881;SDS011;4477;48.736;9.176;2023-10-13T06:01:30;8.00;;;3.70;;
8881;SDS011;4477;48.736;9.176;2023-10-13T06:04:14;6.67;;;3.67;;
8881;SDS011;4477;48.736;9.176;2023-10-13T06:06:59;7.17;;;3.90;;
8881;SDS011;4477;48.736;9.176;2023-10-13T06:09:43;6.50;;;3.87;;
8881;SDS011;4477;48.736;9.176;2023-10-13T06:12:28;6.27;;;3.77;;
8881;SDS011;4477;48.736;9.176;2023-10-13T06:15:13;5.67;;;3.33;;
8881;SDS011;4477;48.736;9.176;2023-10-13T06:17:57;5.73;;;3.97;;
8881;SDS011;4477;48.736;9.176;2023-10-13T06:20:41;7.13;;;3.90;;
8881;SDS011;4477;48.736;9.176;2023-10-13T06:23:25;8.23;;;4.30;;
8881;SDS011;4477;48.736;9.176;2023-10-13T06:26:10;4.73;;;3.27;;
8881;SDS011;4477;48.736;9.176;2023-10-13T06:28:55;6.27;;;3.90;;
8881;SDS011;4477;48.736;9.176;2023-10-13T06:31:23;5.20;;;3.40;;
8881;SDS011;4477;48.736;9.176;2023-10-13T06:33:51;7.53;;;3.50;;
8881;SDS011;4477;48.736;9.176;2023-10-13T06:36:20;5.17;;;3.53;;
8881;SDS011;4477;48.736;9.176;2023-10-13T06:38:47;6.47;;;3.60;;
8881;SDS011;4477;48.736;9.176;2023-10-13T06:41:20;9.10;;;3.53;;
8881;SDS011;4477;48.736;9.176;2023-10-13T06:43:56;8.47;;;3.37;;
8881;SDS011;4477;48.736;9.176;2023-10-13T06:46:26;7.17;;;3.93;;
8881;SDS011;4477;48.736;9.176;2023-10-13T06:48:54;5.17;;;3.67;;
8881;SDS011;4477;48.736;9.176;2023-10-13T06:51:24;7.53;;;3.73;;
8881;SDS011;4477;48.736;9.176;2023-10-13T06:53:55;4.57;;;3.60;;
8881;SDS011;4477;48.736;9.176;2023-10-13T06:56:23;5.33;;;3.63;;
8881;SDS011;4477;48.736;9.176;2023-10-13T06:58:53;9.87;;;3.63;;
8881;SDS011;4477;48.736;9.176;2023-10-13T07:01:26;6.43;;;3.80;;
8881;SDS011;4477;48.736;9.176;2023-10-13T07:03:52;6.17;;;3.60;;
8881;SDS011;4477;48.736;9.176;2023-10-13T07:06:20;6.80;;;3.70;;
8881;SDS011;4477;48.736;9.176;2023-10-13T07:08:48;8.20;;;3.60;;
8881;SDS011;4477;48.736;9.176;2023-10-13T07:11:18;5.40;;;2.97;;
8881;SDS011;4477;48.736;9.176;2023-10-13T07:13:58;7.80;;;3.50;;
8881;SDS011;4477;48.736;9.176;2023-10-13T07:16:27;4.93;;;3.47;;
8881;SDS011;4477;48.736;9.176;2023-10-13T07:19:00;5.70;;;3.53;;
8881;SDS011;4477;48.736;9.176;2023-10-13T07:21:31;5.37;;;2.83;;
8881;SDS011;4477;48.736;9.176;2023-10-13T07:23:59;4.80;;;3.00;;
8881;SDS011;4477;48.736;9.176;2023-10-13T07:26:36;6.17;;;3.80;;
8881;SDS011;4477;48.736;9.176;2023-10-13T07:29:08;6.93;;;3.40;;
8881;SDS011;4477;48.736;9.176;2023-10-13T07:31:36;4.50;;;3.17;;
8881;SDS011;4477;48.736;9.176;2023-10-13T07:34:06;7.50;;;3.20;;
8881;SDS011;4477;48.736;9.176;2023-10-13T07:36:38;4.97;;;3.17;;
8881;SDS011;4477;48.736;9.176;2023-10-13T07:39:08;4.47;;;2.93;;
8881;SDS011;4477;48.736;9.176;2023-10-13T07:41:47;5.97;;;3.10;;
8881;SDS011;4477;48.736;9.176;2023-10-13T07:44:17;5.97;;;3.20;;
8881;SDS011;4477;48.736;9.176;2023-10-13T07:46:51;5.77;;;3.33;;
8881;SDS011;4477;48.736;9.176;2023-10-13T07:49:27;7.03;;;3.00;;
8881;SDS011;4477;48.736;9.176;2023-10-13T07:51:57;6.53;;;3.00;;
8881;SDS011;4477;48.736;9.176;2023-10-13T07:54:35;4.73;;;2.80;;
8881;SDS011;4477;48.736;9.176;2023-10-13T07:57:05;5.13;;;2.97;;
8881;SDS011;4477;48.736;9.176;2023-10-13T07:59:33;7.33;;;3.10;;
8881;SDS011;4477;48.736;9.176;2023-10-13T08:02:01;5.20;;;2.90;;
8881;SDS011;4477;48.736;9.176;2023-10-13T08:04:39;4.63;;;3.20;;
8881;SDS011;4477;48.736;9.176;2023-10-13T08:07:05;4.87;;;3.27;;
8881;SDS011;4477;48.736;9.176;2023-10-13T08:09:38;7.47;;;3.40;;
8881;SDS011;4477;48.736;9.176;2023-10-13T08:12:07;6.87;;;3.70;;
8881;SDS011;4477;48.736;9.176;2023-10-13T08:14:37;8.80;;;3.50;;
8881;SDS011;4477;48.736;9.176;2023-10-13T08:17:08;4.63;;;2.93;;
8881;SDS011;4477;48.736;9.176;2023-10-13T08:19:36;7.60;;;3.30;;
8881;SDS011;4477;48.736;9.176;2023-10-13T08:22:07;11.65;;;2.97;;
8881;SDS011;4477;48.736;9.176;2023-10-13T08:24:50;6.45;;;3.65;;
8881;SDS011;4477;48.736;9.176;2023-10-13T08:27:37;7.10;;;3.33;;
8881;SDS011;4477;48.736;9.176;2023-10-13T08:30:15;4.43;;;2.92;;
8881;SDS011;4477;48.736;9.176;2023-10-13T08:32:52;5.60;;;3.07;;
8881;SDS011;4477;48.736;9.176;2023-10-13T08:35:24;4.67;;;2.93;;
8881;SDS011;4477;48.736;9.176;2023-10-13T08:38:00;4.37;;;2.60;;
8881;SDS011;4477;48.736;9.176;2023-10-13T08:40:40;4.90;;;2.43;;
8881;SDS011;4477;48.736;9.176;2023-10-13T08:43:42;5.43;;;2.80;;
8881;SDS011;4477;48.736;9.176;2023-10-13T08:46:10;5.18;;;2.60;;
8881;SDS011;4477;48.736;9.176;2023-10-13T08:48:53;8.67;;;2.90;;
8881;SDS011;4477;48.736;9.176;2023-10-13T08:51:31;4.85;;;2.60;;
8881;SDS011;4477;48.736;9.176;2023-10-13T08:54:13;5.97;;;2.95;;
8881;SDS011;4477;48.736;9.176;2023-10-13T08:56:58;4.47;;;2.80;;
8881;SDS011;4477;48.736;9.176;2023-10-13T08:59:31;6.38;;;3.03;;
8881;SDS011;4477;48.736;9.176;2023-10-13T09:02:11;4.78;;;2.50;;
8881;SDS011;4477;48.736;9.176;2023-10-13T09:04:44;3.95;;;2.40;;
8881;SDS011;4477;48.736;9.176;2023-10-13T09:07:10;5.28;;;2.35;;
8881;SDS011;4477;48.736;9.176;2023-10-13T09:09:47;6.20;;;2.60;;
8881;SDS011;4477;48.736;9.176;2023-10-13T09:12:36;5.22;;;2.20;;
8881;SDS011;4477;48.736;9.176;2023-10-13T09:15:05;6.05;;;2.65;;
8881;SDS011;4477;48.736;9.176;2023-10-13T09:17:43;4.82;;;2.47;;
8881;SDS011;4477;48.736;9.176;2023-10-13T09:20:27;4.00;;;2.63;;
8881;SDS011;4477;48.736;9.176;2023-10-13T09:23:08;7.20;;;2.70;;
8881;SDS011;4477;48.736;9.176;2023-10-13T09:25:37;6.15;;;2.30;;
8881;SDS011;4477;48.736;9.176;2023-10-13T09:28:19;4.85;;;2.40;;
8881;SDS011;4477;48.736;9.176;2023-10-13T09:30:47;3.78;;;2.20;;
8881;SDS011;4477;48.736;9.176;2023-10-13T09:33:19;6.18;;;3.13;;
8881;SDS011;4477;48.736;9.176;2023-10-13T09:35:55;5.05;;;2.40;;
8881;SDS011;4477;48.736;9.176;2023-10-13T09:38:24;4.53;;;2.20;;
8881;SDS011;4477;48.736;9.176;2023-10-13T09:40:51;4.88;;;2.53;;
8881;SDS011;4477;48.736;9.176;2023-10-13T09:43:22;4.55;;;2.92;;
8881;SDS011;4477;48.736;9.176;2023-10-13T09:45:50;4.03;;;2.33;;
8881;SDS011;4477;48.736;9.176;2023-10-13T09:48:30;7.85;;;2.70;;
8881;SDS011;4477;48.736;9.176;2023-10-13T09:51:00;5.10;;;2.60;;
8881;SDS011;4477;48.736;9.176;2023-10-13T09:53:30;3.92;;;2.33;;
8881;SDS011;4477;48.736;9.176;2023-10-13T09:56:00;4.80;;;2.50;;
8881;SDS011;4477;48.736;9.176;2023-10-13T09:58:42;4.93;;;2.72;;
8881;SDS011;4477;48.736;9.176;2023-10-13T10:01:17;4.93;;;2.55;;
8881;SDS011;4477;48.736;9.176;2023-10-13T10:04:06;3.97;;;2.33;;
8881;SDS011;4477;48.736;9.176;2023-10-13T10:06:35;4.47;;;2.25;;
8881;SDS011;4477;48.736;9.176;2023-10-13T10:09:09;4.88;;;2.42;;
8881;SDS011;4477;48.736;9.176;2023-10-13T10:14:36;6.28;;;2.30;;
8881;SDS011;4477;48.736;9.176;2023-10-13T10:17:21;7.82;;;2.83;;
8881;SDS011;4477;48.736;9.176;2023-10-13T10:19:48;4.80;;;2.70;;
8881;SDS011;4477;48.736;9.176;2023-10-13T10:22:27;5.70;;;3.15;;
8881;SDS011;4477;48.736;9.176;2023-10-13T10:24:58;4.70;;;2.38;;
8881;SDS011;4477;48.736;9.176;2023-10-13T10:27:27;4.45;;;2.45;;
8881;SDS011;4477;48.736;9.176;2023-10-13T10:29:55;4.80;;;2.60;;
8881;SDS011;4477;48.736;9.176;2023-10-13T10:32:31;4.75;;;2.20;;
8881;SDS011;4477;48.736;9.176;2023-10-13T10:35:06;4.25;;;2.33;;
8881;SDS011;4477;48.736;9.176;2023-10-13T10:37:41;5.82;;;2.33;;
8881;SDS011;4477;48.736;9.176;2023-10-13T10:40:13;4.55;;;2.45;;
8881;SDS011;4477;48.736;9.176;2023-10-13T10:42:58;4.13;;;2.70;;
8881;SDS011;4477;48.736;9.176;2023-10-13T10:45:26;4.20;;;2.50;;
8881;SDS011;4477;48.736;9.176;2023-10-13T10:47:57;5.25;;;2.53;;
8881;SDS011;4477;48.736;9.176;2023-10-13T10:50:25;4.05;;;2.35;;
8881;SDS011;4477;48.736;9.176;2023-10-13T10:53:01;5.32;;;2.63;;
8881;SDS011;4477;48.736;9.176;2023-10-13T10:55:33;9.30;;;3.10;;
8881;SDS011;4477;48.736;9.176;2023-10-13T10:58:01;4.63;;;2.72;;
8881;SDS011;4477;48.736;9.176;2023-10-13T11:00:31;5.85;;;2.45;;
8881;SDS011;4477;48.736;9.176;2023-10-13T11:03:11;5.72;;;2.85;;
8881;SDS011;4477;48.736;9.176;2023-10-13T11:05:44;6.32;;;2.33;;
8881;SDS011;4477;48.736;9.176;2023-10-13T11:08:22;4.68;;;2.50;;
8881;SDS011;4477;48.736;9.176;2023-10-13T11:10:56;4.47;;;2.53;;
8881;SDS011;4477;48.736;9.176;2023-10-13T11:13:26;4.75;;;2.53;;
8881;SDS011;4477;48.736;9.176;2023-10-13T11:15:56;4.25;;;2.25;;
8881;SDS011;4477;48.736;9.176;2023-10-13T11:18:28;6.05;;;3.03;;
8881;SDS011;4477;48.736;9.176;2023-10-13T11:20:59;5.63;;;2.45;;
8881;SDS011;4477;48.736;9.176;2023-10-13T11:23:31;5.50;;;2.83;;
8881;SDS011;4477;48.736;9.176;2023-10-13T11:26:02;5.80;;;3.03;;
8881;SDS011;4477;48.736;9.176;2023-10-13T11:28:31;7.38;;;2.67;;
8881;SDS011;4477;48.736;9.176;2023-10-13T11:30:59;3.63;;;2.50;;
8881;SDS011;4477;48.736;9.176;2023-10-13T11:33:35;3.53;;;2.38;;
8881;SDS011;4477;48.736;9.176;2023-10-13T11:36:13;6.00;;;2.90;;
8881;SDS011;4477;48.736;9.176;2023-10-13T11:38:50;3.00;;;2.17;;
8881;SDS011;4477;48.736;9.176;2023-10-13T11:41:23;4.95;;;2.83;;
8881;SDS011;4477;48.736;9.176;2023-10-13T11:43:59;3.97;;;2.22;;
8881;SDS011;4477;48.736;9.176;2023-10-13T11:46:48;5.28;;;2.35;;
8881;SDS011;4477;48.736;9.176;2023-10-13T11:49:20;3.45;;;2.30;;
8881;SDS011;4477;48.736;9.176;2023-10-13T11:52:02;5.88;;;2.50;;
8881;SDS011;4477;48.736;9.176;2023-10-13T11:54:50;4.50;;;2.45;;
8881;SDS011;4477;48.736;9.176;2023-10-13T11:57:17;6.80;;;3.00;;
8881;SDS011;4477;48.736;9.176;2023-10-13T11:59:46;4.57;;;2.70;;
8881;SDS011;4477;48.736;9.176;2023-10-13T12:02:22;5.40;;;2.65;;
8881;SDS011;4477;48.736;9.176;2023-10-13T12:05:07;6.00;;;2.33;;
8881;SDS011;4477;48.736;9.176;2023-10-13T12:07:42;6.50;;;2.30;;
8881;SDS011;4477;48.736;9.176;2023-10-13T12:10:12;4.30;;;2.70;;
8881;SDS011;4477;48.736;9.176;2023-10-13T12:12:58;6.85;;;3.40;;
8881;SDS011;4477;48.736;9.176;2023-10-13T12:15:31;5.47;;;2.40;;
8881;SDS011;4477;48.736;9.176;2023-10-13T12:18:14;5.45;;;2.47;;
8881;SDS011;4477;48.736;9.176;2023-10-13T12:20:41;4.25;;;2.47;;
8881;SDS011;4477;48.736;9.176;2023-10-13T12:23:11;7.38;;;2.20;;
8881;SDS011;4477;48.736;9.176;2023-10-13T12:25:47;6.60;;;2.75;;
8881;SDS011;4477;48.736;9.176;2023-10-13T12:28:31;5.22;;;2.60;;
8881;SDS011;4477;48.736;9.176;2023-10-13T12:31:05;7.60;;;3.10;;
8881;SDS011;4477;48.736;9.176;2023-10-13T12:33:42;5.05;;;2.78;;
8881;SDS011;4477;48.736;9.176;2023-10-13T12:36:13;4.45;;;3.10;;
8881;SDS011;4477;48.736;9.176;2023-10-13T12:39:02;5.53;;;2.42;;
8881;SDS011;4477;48.736;9.176;2023-10-13T12:41:48;6.88;;;2.60;;
8881;SDS011;4477;48.736;9.176;2023-10-13T12:44:31;4.95;;;2.25;;
8881;SDS011;4477;48.736;9.176;2023-10-13T12:47:16;6.50;;;2.30;;
8881;SDS011;4477;48.736;9.176;2023-10-13T12:50:00;4.00;;;2.58;;
8881;SDS011;4477;48.736;9.176;2023-10-13T12:52:51;4.15;;;2.45;;
8881;SDS011;4477;48.736;9.176;2023-10-13T12:55:18;5.15;;;2.40;;
8881;SDS011;4477;48.736;9.176;2023-10-13T12:57:51;4.20;;;2.50;;
8881;SDS011;4477;48.736;9.176;2023-10-13T13:00:19;5.85;;;2.53;;
8881;SDS011;4477;48.736;9.176;2023-10-13T13:02:48;4.38;;;2.85;;
8881;SDS011;4477;48.736;9.176;2023-10-13T13:05:17;5.93;;;2.50;;
8881;SDS011;4477;48.736;9.176;2023-10-13T13:07:48;3.90;;;2.55;;
8881;SDS011;4477;48.736;9.176;2023-10-13T13:10:19;3.80;;;2.30;;
8881;SDS011;4477;48.736;9.176;2023-10-13T13:12:55;3.33;;;2.40;;
8881;SDS011;4477;48.736;9.176;2023-10-13T13:15:22;6.53;;;2.45;;
8881;SDS011;4477;48.736;9.176;2023-10-13T13:17:49;4.07;;;2.30;;
8881;SDS011;4477;48.736;9.176;2023-10-13T13:20:16;3.10;;;2.25;;
8881;SDS011;4477;48.736;9.176;2023-10-13T13:22:53;5.72;;;2.45;;
8881;SDS011;4477;48.736;9.176;2023-10-13T13:25:20;7.55;;;2.42;;
8881;SDS011;4477;48.736;9.176;2023-10-13T13:27:51;6.75;;;2.15;;
8881;SDS011;4477;48.736;9.176;2023-10-13T13:30:20;4.63;;;2.42;;
8881;SDS011;4477;48.736;9.176;2023-10-13T13:32:47;4.03;;;2.60;;
8881;SDS011;4477;48.736;9.176;2023-10-13T13:35:15;3.20;;;2.03;;
8881;SDS011;4477;48.736;9.176;2023-10-13T13:37:43;5.10;;;2.30;;
8881;SDS011;4477;48.736;9.176;2023-10-13T13:40:11;4.15;;;2.35;;
8881;SDS011;4477;48.736;9.176;2023-10-13T13:42:41;4.75;;;2.22;;
8881;SDS011;4477;48.736;9.176;2023-10-13T13:45:11;3.97;;;2.20;;
8881;SDS011;4477;48.736;9.176;2023-10-13T13:47:47;4.20;;;2.22;;
8881;SDS011;4477;48.736;9.176;2023-10-13T13:50:18;2.80;;;2.25;;
8881;SDS011;4477;48.736;9.176;2023-10-13T13:52:50;2.65;;;1.95;;
8881;SDS011;4477;48.736;9.176;2023-10-13T13:55:18;2.65;;;2.00;;
8881;SDS011;4477;48.736;9.176;2023-10-13T13:57:45;4.53;;;2.70;;
8881;SDS011;4477;48.736;9.176;2023-10-13T14:00:15;4.38;;;2.45;;
8881;SDS011;4477;48.736;9.176;2023-10-13T14:02:49;6.20;;;2.63;;
8881;SDS011;4477;48.736;9.176;2023-10-13T14:05:16;4.97;;;1.95;;
8881;SDS011;4477;48.736;9.176;2023-10-13T14:07:44;3.50;;;2.30;;
8881;SDS011;4477;48.736;9.176;2023-10-13T14:10:14;3.13;;;2.22;;
8881;SDS011;4477;48.736;9.176;2023-10-13T14:12:56;5.53;;;2.40;;
8881;SDS011;4477;48.736;9.176;2023-10-13T14:15:32;3.90;;;2.17;;
8881;SDS011;4477;48.736;9.176;2023-10-13T14:18:06;4.10;;;2.42;;
8881;SDS011;4477;48.736;9.176;2023-10-13T14:20:39;5.00;;;2.50;;
8881;SDS011;4477;48.736;9.176;2023-10-13T14:23:07;3.50;;;2.20;;
8881;SDS011;4477;48.736;9.176;2023-10-13T14:25:37;3.20;;;2.33;;
8881;SDS011;4477;48.736;9.176;2023-10-13T14:28:09;3.10;;;2.08;;
8881;SDS011;4477;48.736;9.176;2023-10-13T14:30:42;4.22;;;2.47;;
8881;SDS011;4477;48.736;9.176;2023-10-13T14:33:10;4.57;;;2.10;;
8881;SDS011;4477;48.736;9.176;2023-10-13T14:35:38;3.97;;;2.05;;
8881;SDS011;4477;48.736;9.176;2023-10-13T14:38:04;6.38;;;2.08;;
8881;SDS011;4477;48.736;9.176;2023-10-13T14:40:32;3.13;;;1.92;;
8881;SDS011;4477;48.736;9.176;2023-10-13T14:42:59;3.65;;;2.08;;
8881;SDS011;4477;48.736;9.176;2023-10-13T14:45:25;3.95;;;2.10;;
8881;SDS011;4477;48.736;9.176;2023-10-13T14:47:53;9.27;;;2.30;;
8881;SDS011;4477;48.736;9.176;2023-10-13T14:50:21;4.28;;;2.15;;
8881;SDS011;4477;48.736;9.176;2023-10-13T14:52:49;2.55;;;1.80;;
8881;SDS011;4477;48.736;9.176;2023-10-13T14:55:16;3.13;;;2.03;;
8881;SDS011;4477;48.736;9.176;2023-10-13T14:57:58;3.70;;;2.10;;
8881;SDS011;4477;48.736;9.176;2023-10-13T15:00:29;2.90;;;1.67;;
8881;SDS011;4477;48.736;9.176;2023-10-13T15:02:57;4.25;;;2.08;;
8881;SDS011;4477;48.736;9.176;2023-10-13T15:05:27;4.07;;;1.95;;
8881;SDS011;4477;48.736;9.176;2023-10-13T15:07:56;4.20;;;1.90;;
8881;SDS011;4477;48.736;9.176;2023-10-13T15:10:25;4.68;;;1.88;;
8881;SDS011;4477;48.736;9.176;2023-10-13T15:12:52;5.22;;;1.83;;
8881;SDS011;4477;48.736;9.176;2023-10-13T15:15:19;3.00;;;1.98;;
8881;SDS011;4477;48.736;9.176;2023-10-13T15:17:46;2.45;;;2.05;;
8881;SDS011;4477;48.736;9.176;2023-10-13T15:20:13;4.68;;;1.95;;
8881;SDS011;4477;48.736;9.176;2023-10-13T15:22:43;3.40;;;2.33;;
8881;SDS011;4477;48.736;9.176;2023-10-13T15:25:12;5.53;;;1.98;;
8881;SDS011;4477;48.736;9.176;2023-10-13T15:27:53;3.08;;;1.80;;
8881;SDS011;4477;48.736;9.176;2023-10-13T15:30:27;3.65;;;1.73;;
8881;SDS011;4477;48.736;9.176;2023-10-13T15:33:09;4.25;;;1.60;;
8881;SDS011;4477;48.736;9.176;2023-10-13T15:35:37;2.70;;;1.73;;
8881;SDS011;4477;48.736;9.176;2023-10-13T15:38:09;2.25;;;1.77;;
8881;SDS011;4477;48.736;9.176;2023-10-13T15:40:40;5.03;;;3.67;;
8881;SDS011;4477;48.736;9.176;2023-10-13T15:43:08;4.70;;;4.22;;
8881;SDS011;4477;48.736;9.176;2023-10-13T15:45:37;3.35;;;1.92;;
8881;SDS011;4477;48.736;9.176;2023-10-13T15:48:07;3.85;;;2.40;;
8881;SDS011;4477;48.736;9.176;2023-10-13T15:50:36;6.32;;;2.25;;
8881;SDS011;4477;48.736;9.176;2023-10-13T15:53:05;2.90;;;1.70;;
8881;SDS011;4477;48.736;9.176;2023-10-13T15:55:35;5.10;;;1.80;;
8881;SDS011;4477;48.736;9.176;2023-10-13T15:58:03;2.92;;;1.77;;